sensor_id;sensor_type;location;lat;lon;timestamp;pressure;altitude;pressure_sealevel;temperature;humidity
22572;BME280;11452;53.368;14.658;2023-02-01T00:04:42;100135.09;;;4.45;80.71
22572;BME280;11452;53.368;14.658;2023-02-01T00:09:47;100122.58;;;4.48;80.82
22572;BME280;11452;53.368;14.658;2023-02-01T00:14:53;100115.37;;;4.52;81.25
22572;BME280;11452;53.368;14.658;2023-02-01T00:19:58;100126.24;;;4.56;81.18
22572;BME280;11452;53.368;14.658;2023-02-01T00:25:04;100122.80;;;4.64;81.43
22572;BME280;11452;53.368;14.658;2023-02-01T00:30:11;100111.23;;;4.67;81.24
22572;BME280;11452;53.368;14.658;2023-02-01T00:35:17;100118.45;;;4.73;81.37
22572;BME280;11452;53.368;14.658;2023-02-01T00:40:22;100113.31;;;4.80;81.50
22572;BME280;11452;53.368;14.658;2023-02-01T00:45:28;100090.53;;;4.76;81.23
22572;BME280;11452;53.368;14.658;2023-02-01T00:50:35;100115.80;;;4.73;81.40
22572;BME280;11452;53.368;14.658;2023-02-01T00:55:49;100119.96;;;4.69;81.33
22572;BME280;11452;53.368;14.658;2023-02-01T01:01:12;100084.58;;;4.61;81.32
22572;BME280;11452;53.368;14.658;2023-02-01T01:06:20;100113.81;;;4.58;81.36
22572;BME280;11452;53.368;14.658;2023-02-01T01:11:29;100127.28;;;4.52;81.50
22572;BME280;11452;53.368;14.658;2023-02-01T01:16:35;100102.95;;;4.54;81.70
22572;BME280;11452;53.368;14.658;2023-02-01T01:21:41;100104.03;;;4.60;81.66
22572;BME280;11452;53.368;14.658;2023-02-01T01:26:46;100105.59;;;4.54;81.87
22572;BME280;11452;53.368;14.658;2023-02-01T01:31:52;100090.58;;;4.55;82.04
22572;BME280;11452;53.368;14.658;2023-02-01T01:36:58;100088.73;;;4.57;82.17
22572;BME280;11452;53.368;14.658;2023-02-01T01:42:03;100088.39;;;4.64;82.22
22572;BME280;11452;53.368;14.658;2023-02-01T01:47:10;100080.27;;;4.69;82.35
22572;BME280;11452;53.368;14.658;2023-02-01T01:52:15;100070.87;;;4.72;82.13
22572;BME280;11452;53.368;14.658;2023-02-01T01:57:31;100072.74;;;4.80;82.29
22572;BME280;11452;53.368;14.658;2023-02-01T02:02:30;100079.83;;;4.79;81.93
22572;BME280;11452;53.368;14.658;2023-02-01T02:07:39;100084.59;;;4.81;81.86
22572;BME280;11452;53.368;14.658;2023-02-01T02:12:45;100084.59;;;4.81;81.86
22572;BME280;11452;53.368;14.658;2023-02-01T02:18:06;100081.08;;;4.81;81.62
22572;BME280;11452;53.368;14.658;2023-02-01T02:45:06;100071.48;;;4.78;81.28
22572;BME280;11452;53.368;14.658;2023-02-01T02:55:57;100070.27;;;4.85;80.93
22572;BME280;11452;53.368;14.658;2023-02-01T03:01:22;100076.84;;;4.77;80.59
22572;BME280;11452;53.368;14.658;2023-02-01T03:06:47;100076.84;;;4.77;80.59
22572;BME280;11452;53.368;14.658;2023-02-01T03:11:55;100079.55;;;4.75;80.45
22572;BME280;11452;53.368;14.658;2023-02-01T03:17:22;100076.84;;;4.77;80.69
22572;BME280;11452;53.368;14.658;2023-02-01T03:22:29;100071.61;;;4.75;80.69
22572;BME280;11452;53.368;14.658;2023-02-01T03:27:53;100070.69;;;4.76;80.75
22572;BME280;11452;53.368;14.658;2023-02-01T03:33:03;100060.63;;;4.74;80.70
22572;BME280;11452;53.368;14.658;2023-02-01T03:38:17;100071.48;;;4.78;80.92
22572;BME280;11452;53.368;14.658;2023-02-01T03:43:22;100050.28;;;4.88;80.55
22572;BME280;11452;53.368;14.658;2023-02-01T03:48:29;100050.28;;;4.88;80.55
22572;BME280;11452;53.368;14.658;2023-02-01T03:53:36;100044.66;;;4.86;80.85
22572;BME280;11452;53.368;14.658;2023-02-01T03:58:43;100044.66;;;4.86;80.85
22572;BME280;11452;53.368;14.658;2023-02-01T04:03:51;100036.19;;;4.88;80.47
22572;BME280;11452;53.368;14.658;2023-02-01T04:08:57;100043.88;;;4.74;80.27
22572;BME280;11452;53.368;14.658;2023-02-01T04:14:03;100015.83;;;4.70;80.41
22572;BME280;11452;53.368;14.658;2023-02-01T04:19:09;100025.16;;;4.68;80.33
22572;BME280;11452;53.368;14.658;2023-02-01T04:24:14;100023.95;;;4.65;80.69
22572;BME280;11452;53.368;14.658;2023-02-01T04:29:20;100025.74;;;4.65;80.83
22572;BME280;11452;53.368;14.658;2023-02-01T04:34:26;100032.56;;;4.70;80.95
22572;BME280;11452;53.368;14.658;2023-02-01T04:39:31;100024.23;;;4.79;81.16
22572;BME280;11452;53.368;14.658;2023-02-01T04:44:37;100049.78;;;4.80;81.28
22572;BME280;11452;53.368;14.658;2023-02-01T04:49:43;100049.78;;;4.80;81.28
22572;BME280;11452;53.368;14.658;2023-02-01T04:54:49;100049.91;;;4.77;81.10
22572;BME280;11452;53.368;14.658;2023-02-01T04:59:54;100028.27;;;4.78;81.26
22572;BME280;11452;53.368;14.658;2023-02-01T05:05:00;100038.46;;;4.77;81.43
22572;BME280;11452;53.368;14.658;2023-02-01T05:10:06;100008.68;;;4.72;81.40
22572;BME280;11452;53.368;14.658;2023-02-01T05:15:12;100000.95;;;4.57;81.57
22572;BME280;11452;53.368;14.658;2023-02-01T05:20:18;99989.77;;;4.50;81.75
22572;BME280;11452;53.368;14.658;2023-02-01T05:25:24;99997.38;;;4.48;82.13
22572;BME280;11452;53.368;14.658;2023-02-01T05:30:29;99990.12;;;4.43;82.31
22572;BME280;11452;53.368;14.658;2023-02-01T05:35:36;99991.03;;;4.32;82.74
22572;BME280;11452;53.368;14.658;2023-02-01T05:40:42;100004.59;;;4.34;83.21
22572;BME280;11452;53.368;14.658;2023-02-01T05:45:51;99989.70;;;4.32;83.37
22572;BME280;11452;53.368;14.658;2023-02-01T05:50:57;99983.16;;;4.30;83.75
22572;BME280;11452;53.368;14.658;2023-02-01T05:56:03;99984.29;;;4.35;83.91
22572;BME280;11452;53.368;14.658;2023-02-01T06:01:08;99977.34;;;4.32;84.22
22572;BME280;11452;53.368;14.658;2023-02-01T06:06:14;99986.94;;;4.35;84.52
22572;BME280;11452;53.368;14.658;2023-02-01T06:11:19;99988.91;;;4.50;84.74
22572;BME280;11452;53.368;14.658;2023-02-01T06:16:28;99987.14;;;4.61;84.93
22572;BME280;11452;53.368;14.658;2023-02-01T06:21:34;99985.26;;;4.73;84.70
22572;BME280;11452;53.368;14.658;2023-02-01T06:26:40;99984.07;;;4.80;84.32
22572;BME280;11452;53.368;14.658;2023-02-01T06:31:46;99990.98;;;4.82;84.25
22572;BME280;11452;53.368;14.658;2023-02-01T06:36:52;99990.98;;;4.82;84.25
22572;BME280;11452;53.368;14.658;2023-02-01T06:41:59;99970.67;;;4.83;84.17
22572;BME280;11452;53.368;14.658;2023-02-01T06:47:05;99986.02;;;4.95;84.16
22572;BME280;11452;53.368;14.658;2023-02-01T06:52:12;99986.02;;;4.95;84.16
22572;BME280;11452;53.368;14.658;2023-02-01T06:57:18;99980.73;;;4.95;83.99
22572;BME280;11452;53.368;14.658;2023-02-01T07:02:23;99989.59;;;4.94;83.66
22572;BME280;11452;53.368;14.658;2023-02-01T07:07:29;99984.89;;;5.01;83.84
22572;BME280;11452;53.368;14.658;2023-02-01T07:12:35;99999.09;;;5.08;83.88
22572;BME280;11452;53.368;14.658;2023-02-01T07:17:40;99989.22;;;5.12;83.63
22572;BME280;11452;53.368;14.658;2023-02-01T07:22:46;99989.34;;;5.19;83.28
22572;BME280;11452;53.368;14.658;2023-02-01T07:27:51;99989.34;;;5.19;83.28
22572;BME280;11452;53.368;14.658;2023-02-01T07:32:57;99985.58;;;5.14;83.09
22572;BME280;11452;53.368;14.658;2023-02-01T07:38:04;99982.80;;;5.17;83.12
22572;BME280;11452;53.368;14.658;2023-02-01T07:43:10;99963.72;;;5.74;85.33
22572;BME280;11452;53.368;14.658;2023-02-01T07:48:16;99953.41;;;6.04;83.95
22572;BME280;11452;53.368;14.658;2023-02-01T07:53:21;99964.71;;;6.34;83.13
22572;BME280;11452;53.368;14.658;2023-02-01T07:58:27;99961.75;;;5.78;82.08
22572;BME280;11452;53.368;14.658;2023-02-01T08:03:34;99963.04;;;5.52;82.02
22572;BME280;11452;53.368;14.658;2023-02-01T08:08:40;99969.55;;;5.45;82.21
22572;BME280;11452;53.368;14.658;2023-02-01T08:13:47;99960.93;;;5.50;82.72
22572;BME280;11452;53.368;14.658;2023-02-01T08:18:53;99947.42;;;5.46;82.44
22572;BME280;11452;53.368;14.658;2023-02-01T08:23:58;99952.01;;;5.42;82.90
22572;BME280;11452;53.368;14.658;2023-02-01T08:29:05;99956.95;;;5.50;83.04
22572;BME280;11452;53.368;14.658;2023-02-01T08:34:11;99956.95;;;5.50;83.04
22572;BME280;11452;53.368;14.658;2023-02-01T08:39:16;99953.05;;;5.48;82.77
22572;BME280;11452;53.368;14.658;2023-02-01T08:44:22;99953.05;;;5.48;82.77
22572;BME280;11452;53.368;14.658;2023-02-01T08:49:27;99949.14;;;5.47;82.75
22572;BME280;11452;53.368;14.658;2023-02-01T08:54:33;99970.15;;;5.33;82.92
22572;BME280;11452;53.368;14.658;2023-02-01T08:59:38;99960.16;;;5.29;82.26
22572;BME280;11452;53.368;14.658;2023-02-01T09:04:43;99960.16;;;5.29;82.26
22572;BME280;11452;53.368;14.658;2023-02-01T09:09:49;99977.38;;;5.29;82.89
22572;BME280;11452;53.368;14.658;2023-02-01T09:14:56;99980.02;;;5.29;82.76
22572;BME280;11452;53.368;14.658;2023-02-01T09:20:04;99970.56;;;5.23;82.29
22572;BME280;11452;53.368;14.658;2023-02-01T09:25:10;99961.41;;;5.31;82.65
22572;BME280;11452;53.368;14.658;2023-02-01T09:30:16;99952.79;;;5.36;82.56
22572;BME280;11452;53.368;14.658;2023-02-01T09:35:22;99952.86;;;5.34;82.13
22572;BME280;11452;53.368;14.658;2023-02-01T09:40:27;99978.16;;;5.31;81.87
22572;BME280;11452;53.368;14.658;2023-02-01T09:45:44;99959.62;;;5.40;81.97
22572;BME280;11452;53.368;14.658;2023-02-01T09:50:48;99959.50;;;5.24;81.55
22572;BME280;11452;53.368;14.658;2023-02-01T09:55:57;99959.30;;;5.29;81.71
22572;BME280;11452;53.368;14.658;2023-02-01T10:01:03;99962.27;;;5.31;81.26
22572;BME280;11452;53.368;14.658;2023-02-01T10:11:45;99969.06;;;5.55;81.69
22572;BME280;11452;53.368;14.658;2023-02-01T10:17:12;99967.48;;;5.51;80.90
22572;BME280;11452;53.368;14.658;2023-02-01T10:22:27;99970.48;;;5.44;80.54
22572;BME280;11452;53.368;14.658;2023-02-01T10:27:36;99980.41;;;5.49;81.01
22572;BME280;11452;53.368;14.658;2023-02-01T10:32:42;99973.78;;;5.49;80.75
22572;BME280;11452;53.368;14.658;2023-02-01T10:37:47;99971.27;;;5.46;80.74
22572;BME280;11452;53.368;14.658;2023-02-01T10:42:56;99995.39;;;5.58;80.55
22572;BME280;11452;53.368;14.658;2023-02-01T10:48:03;99965.91;;;5.75;80.81
22572;BME280;11452;53.368;14.658;2023-02-01T10:53:24;99966.25;;;5.95;80.61
22572;BME280;11452;53.368;14.658;2023-02-01T10:58:31;99961.34;;;5.96;80.05
22572;BME280;11452;53.368;14.658;2023-02-01T11:03:41;99973.13;;;5.99;79.82
22572;BME280;11452;53.368;14.658;2023-02-01T11:08:53;99969.47;;;6.01;79.68
22572;BME280;11452;53.368;14.658;2023-02-01T11:14:02;99961.14;;;6.09;79.84
22572;BME280;11452;53.368;14.658;2023-02-01T11:19:07;99969.56;;;6.25;79.53
22572;BME280;11452;53.368;14.658;2023-02-01T11:24:22;99958.41;;;6.28;78.94
22572;BME280;11452;53.368;14.658;2023-02-01T11:29:26;99956.84;;;6.23;78.81
22572;BME280;11452;53.368;14.658;2023-02-01T11:34:40;99948.81;;;6.08;78.88
22572;BME280;11452;53.368;14.658;2023-02-01T11:40:22;99970.70;;;5.94;79.38
22572;BME280;11452;53.368;14.658;2023-02-01T11:45:20;99971.06;;;5.86;79.84
22572;BME280;11452;53.368;14.658;2023-02-01T11:56:53;99960.38;;;5.88;80.68
22572;BME280;11452;53.368;14.658;2023-02-01T12:02:10;99957.41;;;5.85;80.81
22572;BME280;11452;53.368;14.658;2023-02-01T12:07:23;99934.16;;;5.82;81.23
22572;BME280;11452;53.368;14.658;2023-02-01T12:18:08;99955.18;;;5.95;81.42
22572;BME280;11452;53.368;14.658;2023-02-01T12:28:53;99967.21;;;6.02;81.64
22572;BME280;11452;53.368;14.658;2023-02-01T12:44:31;99944.80;;;5.08;82.54
22572;BME280;11452;53.368;14.658;2023-02-01T12:54:59;99940.76;;;5.10;83.24
22572;BME280;11452;53.368;14.658;2023-02-01T13:00:14;99940.16;;;5.13;83.32
22572;BME280;11452;53.368;14.658;2023-02-01T13:05:21;99934.72;;;5.16;83.76
22572;BME280;11452;53.368;14.658;2023-02-01T13:10:40;99934.72;;;5.16;83.76
22572;BME280;11452;53.368;14.658;2023-02-01T13:16:06;99926.18;;;5.29;84.12
22572;BME280;11452;53.368;14.658;2023-02-01T13:21:09;99943.05;;;5.36;83.94
22572;BME280;11452;53.368;14.658;2023-02-01T13:26:15;99938.26;;;5.53;84.84
22572;BME280;11452;53.368;14.658;2023-02-01T13:42:18;99943.95;;;5.63;83.56
22572;BME280;11452;53.368;14.658;2023-02-01T13:47:35;99947.44;;;5.27;83.29
22572;BME280;11452;53.368;14.658;2023-02-01T13:52:44;99937.77;;;4.99;83.81
22572;BME280;11452;53.368;14.658;2023-02-01T13:57:58;99915.53;;;4.45;84.61
22572;BME280;11452;53.368;14.658;2023-02-01T14:08:37;99904.65;;;4.51;84.81
22572;BME280;11452;53.368;14.658;2023-02-01T14:13:43;99905.02;;;4.43;84.82
22572;BME280;11452;53.368;14.658;2023-02-01T14:18:56;99905.02;;;4.43;84.82
22572;BME280;11452;53.368;14.658;2023-02-01T14:29:56;99897.43;;;4.26;85.51
22572;BME280;11452;53.368;14.658;2023-02-01T14:34:38;99888.45;;;4.48;86.46
22572;BME280;11452;53.368;14.658;2023-02-01T14:50:34;99913.14;;;4.78;87.00
22572;BME280;11452;53.368;14.658;2023-02-01T15:17:27;99868.01;;;5.08;86.80
22572;BME280;11452;53.368;14.658;2023-02-01T15:22:38;99868.01;;;5.08;86.80
22572;BME280;11452;53.368;14.658;2023-02-01T15:27:44;99869.84;;;5.16;86.68
22572;BME280;11452;53.368;14.658;2023-02-01T15:32:49;99865.40;;;5.17;86.68
22572;BME280;11452;53.368;14.658;2023-02-01T15:43:21;99864.29;;;5.21;86.49
22572;BME280;11452;53.368;14.658;2023-02-01T15:48:30;99851.98;;;5.20;86.34
22572;BME280;11452;53.368;14.658;2023-02-01T15:53:35;99832.44;;;5.22;86.81
22572;BME280;11452;53.368;14.658;2023-02-01T15:58:42;99831.06;;;5.33;86.79
22572;BME280;11452;53.368;14.658;2023-02-01T16:03:49;99831.06;;;5.33;86.79
22572;BME280;11452;53.368;14.658;2023-02-01T16:14:05;99824.38;;;5.34;86.47
22572;BME280;11452;53.368;14.658;2023-02-01T16:19:11;99834.10;;;5.42;86.80
22572;BME280;11452;53.368;14.658;2023-02-01T16:24:18;99830.05;;;5.44;86.66
22572;BME280;11452;53.368;14.658;2023-02-01T16:29:23;99846.03;;;5.42;86.50
22572;BME280;11452;53.368;14.658;2023-02-01T16:34:29;99853.48;;;5.26;86.63
22572;BME280;11452;53.368;14.658;2023-02-01T16:39:35;99849.51;;;5.17;86.87
22572;BME280;11452;53.368;14.658;2023-02-01T16:44:41;99849.51;;;5.17;86.87
22572;BME280;11452;53.368;14.658;2023-02-01T16:49:46;99852.05;;;5.10;87.28
22572;BME280;11452;53.368;14.658;2023-02-01T16:54:52;99857.81;;;5.09;87.81
22572;BME280;11452;53.368;14.658;2023-02-01T16:59:57;99857.81;;;5.09;87.81
22572;BME280;11452;53.368;14.658;2023-02-01T17:05:07;99871.66;;;5.06;87.79
22572;BME280;11452;53.368;14.658;2023-02-01T17:10:22;99870.39;;;4.96;87.81
22572;BME280;11452;53.368;14.658;2023-02-01T17:15:33;99878.80;;;4.95;88.32
22572;BME280;11452;53.368;14.658;2023-02-01T17:20:42;99878.80;;;4.95;88.32
22572;BME280;11452;53.368;14.658;2023-02-01T17:25:48;99883.77;;;4.93;88.02
22572;BME280;11452;53.368;14.658;2023-02-01T17:30:54;99875.78;;;4.84;88.10
22572;BME280;11452;53.368;14.658;2023-02-01T17:36:00;99876.10;;;4.86;88.33
22572;BME280;11452;53.368;14.658;2023-02-01T17:41:05;99878.66;;;4.79;88.26
22572;BME280;11452;53.368;14.658;2023-02-01T17:46:13;99877.55;;;4.75;88.16
22572;BME280;11452;53.368;14.658;2023-02-01T17:51:27;99878.28;;;4.68;88.20
22572;BME280;11452;53.368;14.658;2023-02-01T17:56:28;99880.26;;;4.73;88.10
22572;BME280;11452;53.368;14.658;2023-02-01T18:01:33;99871.13;;;4.70;88.20
22572;BME280;11452;53.368;14.658;2023-02-01T18:06:39;99865.28;;;4.64;88.05
22572;BME280;11452;53.368;14.658;2023-02-01T18:11:44;99875.77;;;4.65;88.22
22572;BME280;11452;53.368;14.658;2023-02-01T18:16:52;99879.60;;;4.68;88.20
22572;BME280;11452;53.368;14.658;2023-02-01T18:21:58;99879.60;;;4.68;88.20
22572;BME280;11452;53.368;14.658;2023-02-01T18:27:03;99889.27;;;4.69;88.20
22572;BME280;11452;53.368;14.658;2023-02-01T18:32:10;99870.41;;;4.67;88.15
22572;BME280;11452;53.368;14.658;2023-02-01T18:37:15;99874.31;;;4.68;88.21
22572;BME280;11452;53.368;14.658;2023-02-01T18:42:21;99871.45;;;4.73;88.28
22572;BME280;11452;53.368;14.658;2023-02-01T18:47:27;99873.52;;;4.66;87.97
22572;BME280;11452;53.368;14.658;2023-02-01T18:52:32;99861.87;;;4.70;88.16
22572;BME280;11452;53.368;14.658;2023-02-01T18:57:38;99867.54;;;4.81;88.39
22572;BME280;11452;53.368;14.658;2023-02-01T19:02:45;99874.45;;;4.84;88.18
22572;BME280;11452;53.368;14.658;2023-02-01T19:07:51;99868.09;;;4.88;88.14
22572;BME280;11452;53.368;14.658;2023-02-01T19:12:57;99870.34;;;4.87;88.02
22572;BME280;11452;53.368;14.658;2023-02-01T19:18:02;99875.61;;;4.97;88.10
22572;BME280;11452;53.368;14.658;2023-02-01T19:23:08;99861.20;;;4.94;87.87
22572;BME280;11452;53.368;14.658;2023-02-01T19:28:16;99861.20;;;4.94;87.87
22572;BME280;11452;53.368;14.658;2023-02-01T19:33:22;99861.66;;;4.94;87.87
22572;BME280;11452;53.368;14.658;2023-02-01T19:38:27;99861.66;;;4.94;87.87
22572;BME280;11452;53.368;14.658;2023-02-01T19:43:33;99866.94;;;5.12;87.97
22572;BME280;11452;53.368;14.658;2023-02-01T19:48:40;99861.10;;;5.14;87.53
22572;BME280;11452;53.368;14.658;2023-02-01T19:53:45;99877.24;;;5.18;87.43
22572;BME280;11452;53.368;14.658;2023-02-01T19:58:51;99877.24;;;5.18;87.43
22572;BME280;11452;53.368;14.658;2023-02-01T20:03:59;99870.23;;;5.17;87.23
22572;BME280;11452;53.368;14.658;2023-02-01T20:09:09;99870.23;;;5.17;87.23
22572;BME280;11452;53.368;14.658;2023-02-01T20:14:15;99867.19;;;5.25;87.04
22572;BME280;11452;53.368;14.658;2023-02-01T20:19:21;99865.80;;;5.27;86.67
22572;BME280;11452;53.368;14.658;2023-02-01T20:24:26;99873.20;;;5.29;86.58
22572;BME280;11452;53.368;14.658;2023-02-01T20:29:32;99873.20;;;5.29;86.58
22572;BME280;11452;53.368;14.658;2023-02-01T20:34:38;99877.50;;;5.31;86.29
22572;BME280;11452;53.368;14.658;2023-02-01T20:39:43;99872.56;;;5.23;85.60
22572;BME280;11452;53.368;14.658;2023-02-01T20:44:49;99872.56;;;5.23;85.60
22572;BME280;11452;53.368;14.658;2023-02-01T20:49:54;99864.89;;;5.36;85.99
22572;BME280;11452;53.368;14.658;2023-02-01T20:55:00;99864.89;;;5.36;85.99
22572;BME280;11452;53.368;14.658;2023-02-01T21:00:06;99867.94;;;5.37;85.53
22572;BME280;11452;53.368;14.658;2023-02-01T21:05:17;99867.94;;;5.37;85.53
22572;BME280;11452;53.368;14.658;2023-02-01T21:10:22;99866.91;;;5.40;85.27
22572;BME280;11452;53.368;14.658;2023-02-01T21:15:28;99857.09;;;5.33;84.82
22572;BME280;11452;53.368;14.658;2023-02-01T21:20:34;99869.23;;;5.29;84.71
22572;BME280;11452;53.368;14.658;2023-02-01T21:25:40;99878.33;;;5.23;84.70
22572;BME280;11452;53.368;14.658;2023-02-01T21:30:46;99888.88;;;5.33;85.02
22572;BME280;11452;53.368;14.658;2023-02-01T21:35:52;99892.00;;;5.33;84.66
22572;BME280;11452;53.368;14.658;2023-02-01T21:40:57;99889.28;;;5.34;84.43
22572;BME280;11452;53.368;14.658;2023-02-01T21:46:21;99879.36;;;5.29;84.17
22572;BME280;11452;53.368;14.658;2023-02-01T21:51:28;99881.94;;;5.39;84.24
22572;BME280;11452;53.368;14.658;2023-02-01T21:56:35;99855.55;;;5.38;83.97
22572;BME280;11452;53.368;14.658;2023-02-01T22:01:41;99870.02;;;5.39;83.83
22572;BME280;11452;53.368;14.658;2023-02-01T22:06:46;99869.55;;;5.40;83.50
22572;BME280;11452;53.368;14.658;2023-02-01T22:11:53;99849.53;;;5.43;83.31
22572;BME280;11452;53.368;14.658;2023-02-01T22:17:02;99860.70;;;5.49;83.38
22572;BME280;11452;53.368;14.658;2023-02-01T22:22:08;99853.22;;;5.49;82.68
22572;BME280;11452;53.368;14.658;2023-02-01T22:27:14;99858.69;;;5.54;82.48
22572;BME280;11452;53.368;14.658;2023-02-01T22:32:20;99858.15;;;5.56;81.89
22572;BME280;11452;53.368;14.658;2023-02-01T22:37:25;99853.30;;;5.65;81.94
22572;BME280;11452;53.368;14.658;2023-02-01T22:42:31;99833.81;;;5.66;81.41
22572;BME280;11452;53.368;14.658;2023-02-01T22:47:36;99830.77;;;5.65;80.96
22572;BME280;11452;53.368;14.658;2023-02-01T22:52:42;99817.29;;;5.95;81.57
22572;BME280;11452;53.368;14.658;2023-02-01T22:57:47;99815.80;;;5.81;80.17
22572;BME280;11452;53.368;14.658;2023-02-01T23:02:53;99795.59;;;5.78;79.51
22572;BME280;11452;53.368;14.658;2023-02-01T23:07:59;99795.13;;;5.79;79.56
22572;BME280;11452;53.368;14.658;2023-02-01T23:13:04;99786.86;;;5.76;79.12
22572;BME280;11452;53.368;14.658;2023-02-01T23:18:10;99789.63;;;5.75;78.92
22572;BME280;11452;53.368;14.658;2023-02-01T23:23:15;99771.89;;;5.75;78.90
22572;BME280;11452;53.368;14.658;2023-02-01T23:28:22;99749.00;;;5.74;78.67
22572;BME280;11452;53.368;14.658;2023-02-01T23:33:27;99730.06;;;5.73;78.45
22572;BME280;11452;53.368;14.658;2023-02-01T23:38:33;99722.66;;;5.71;78.10
22572;BME280;11452;53.368;14.658;2023-02-01T23:43:39;99711.23;;;5.78;78.37
22572;BME280;11452;53.368;14.658;2023-02-01T23:49:06;99696.92;;;5.73;78.09
22572;BME280;11452;53.368;14.658;2023-02-01T23:54:12;99684.80;;;5.76;78.30
22572;BME280;11452;53.368;14.658;2023-02-01T23:59:20;99656.05;;;5.53;79.04
